createdAt,value
2022-08-25T00:02:08.978Z,17.70
2022-08-25T00:04:38.330Z,18.85
2022-08-25T00:07:07.536Z,16.48
2022-08-25T00:09:35.566Z,12.47
2022-08-25T00:12:05.618Z,24.60
2022-08-25T00:14:36.980Z,21.42
2022-08-25T00:17:06.294Z,18.42
2022-08-25T00:19:37.592Z,21.57
2022-08-25T00:22:07.536Z,22.55
2022-08-25T00:24:35.238Z,18.75
2022-08-25T00:27:03.642Z,16.65
2022-08-25T00:29:32.549Z,16.10
2022-08-25T00:32:00.995Z,15.28
2022-08-25T00:34:33.786Z,22.87
2022-08-25T00:37:04.538Z,21.12
2022-08-25T00:39:32.716Z,15.18
2022-08-25T00:42:00.716Z,16.48
2022-08-25T00:44:31.579Z,17.02
2022-08-25T00:47:02.350Z,20.95
2022-08-25T00:49:45.071Z,21.80
2022-08-25T00:52:24.050Z,22.13
2022-08-25T00:55:14.747Z,18.17
2022-08-25T00:57:46.793Z,23.77
2022-08-25T01:00:22.796Z,19.85
2022-08-25T01:02:50.565Z,18.80
2022-08-25T01:05:20.183Z,21.20
2022-08-25T01:07:49.144Z,25.88
2022-08-25T01:10:19.507Z,29.82
2022-08-25T01:12:48.581Z,16.93
2022-08-25T01:15:17.552Z,20.15
2022-08-25T01:17:52.591Z,21.23
2022-08-25T01:20:24.479Z,18.67
2022-08-25T01:22:55.205Z,19.35
2022-08-25T01:25:51.095Z,15.05
2022-08-25T01:28:20.667Z,22.67
2022-08-25T01:30:49.032Z,19.17
2022-08-25T01:33:16.954Z,20.30
2022-08-25T01:35:45.147Z,20.25
2022-08-25T01:38:13.596Z,20.27
2022-08-25T01:40:42.598Z,20.17
2022-08-25T01:43:27.575Z,18.52
2022-08-25T01:45:55.540Z,19.65
2022-08-25T01:48:23.300Z,22.10
2022-08-25T01:50:51.076Z,24.72
2022-08-25T01:53:33.249Z,22.17
2022-08-25T01:56:10.957Z,20.15
2022-08-25T01:58:42.949Z,20.95
2022-08-25T02:01:18.648Z,25.32
2022-08-25T02:03:49.958Z,22.48
2022-08-25T02:06:33.395Z,20.10
2022-08-25T02:09:08.977Z,15.53
2022-08-25T02:11:39.871Z,19.65
2022-08-25T02:14:11.187Z,19.70
2022-08-25T02:16:41.847Z,22.42
2022-08-25T02:19:11.720Z,22.48
2022-08-25T02:21:39.348Z,17.92
2022-08-25T02:24:08.922Z,25.82
2022-08-25T02:26:36.746Z,23.45
2022-08-25T02:29:07.029Z,23.75
2022-08-25T02:31:35.989Z,23.98
2022-08-25T02:34:04.451Z,21.77
2022-08-25T02:36:32.175Z,19.25
2022-08-25T02:39:00.225Z,23.83
2022-08-25T02:41:31.457Z,23.92
2022-08-25T02:44:04.372Z,17.48
2022-08-25T02:46:32.422Z,21.37
2022-08-25T02:49:00.402Z,27.42
2022-08-25T02:51:31.523Z,23.35
2022-08-25T02:54:01.942Z,18.30
2022-08-25T02:56:45.363Z,21.70
2022-08-25T02:59:18.963Z,26.93
2022-08-25T03:01:57.280Z,22.82
2022-08-25T03:04:31.388Z,26.00
2022-08-25T03:07:03.393Z,24.35
2022-08-25T03:09:37.399Z,27.07
2022-08-25T03:12:09.199Z,26.60
2022-08-25T03:14:37.383Z,26.25
2022-08-25T03:17:09.030Z,29.10
2022-08-25T03:19:36.707Z,25.25
2022-08-25T03:22:04.760Z,19.77
2022-08-25T03:24:32.633Z,26.87
2022-08-25T03:27:00.478Z,20.88
2022-08-25T03:29:32.166Z,22.77
2022-08-25T03:32:00.989Z,26.05
2022-08-25T03:34:30.558Z,21.85
2022-08-25T03:36:58.866Z,19.40
2022-08-25T03:39:27.271Z,22.02
2022-08-25T03:41:55.163Z,12.80
2022-08-25T03:44:23.016Z,26.30
2022-08-25T03:46:52.156Z,19.75
2022-08-25T03:49:23.417Z,28.07
2022-08-25T03:51:55.078Z,27.20
2022-08-25T03:54:26.015Z,23.05
2022-08-25T03:56:54.234Z,25.85
2022-08-25T03:59:21.924Z,21.30
2022-08-25T04:01:54.849Z,23.90
2022-08-25T04:04:21.113Z,21.17
2022-08-25T04:06:48.966Z,20.72
2022-08-25T04:09:16.710Z,16.95
2022-08-25T04:11:44.609Z,16.45
2022-08-25T04:14:16.614Z,24.18
2022-08-25T04:16:45.732Z,20.75
2022-08-25T04:19:13.716Z,20.37
2022-08-25T04:21:42.706Z,21.40
2022-08-25T04:24:13.144Z,19.32
2022-08-25T04:26:48.138Z,21.20
2022-08-25T04:29:20.003Z,37.55
2022-08-25T04:31:50.620Z,19.10
2022-08-25T04:34:31.063Z,20.60
2022-08-25T04:36:52.697Z,22.30
2022-08-25T04:39:21.504Z,22.60
2022-08-25T04:41:50.881Z,24.05
2022-08-25T04:44:18.526Z,23.83
2022-08-25T04:46:46.406Z,21.00
2022-08-25T04:49:14.116Z,27.82
2022-08-25T04:51:42.737Z,23.30
2022-08-25T04:54:18.862Z,17.37
2022-08-25T04:56:48.934Z,22.85
2022-08-25T04:59:18.482Z,18.98
2022-08-25T05:01:46.592Z,20.08
2022-08-25T05:04:28.571Z,21.00
2022-08-25T05:06:48.878Z,26.75
2022-08-25T05:09:19.851Z,18.55
2022-08-25T05:11:46.012Z,17.10
2022-08-25T05:14:16.716Z,19.65
2022-08-25T05:16:48.481Z,21.80
2022-08-25T05:19:16.870Z,13.90
2022-08-25T05:21:44.619Z,18.95
2022-08-25T05:24:12.280Z,20.08
2022-08-25T05:26:39.963Z,20.57
2022-08-25T05:29:09.966Z,20.88
2022-08-25T05:31:42.306Z,15.60
2022-08-25T05:34:08.919Z,23.75
2022-08-25T05:36:38.076Z,28.60
2022-08-25T05:39:05.715Z,31.45
2022-08-25T05:41:33.372Z,19.67
2022-08-25T05:44:01.272Z,26.17
2022-08-25T05:46:31.549Z,17.50
2022-08-25T05:48:58.981Z,18.75
2022-08-25T05:51:27.090Z,21.62
2022-08-25T05:53:54.894Z,18.85
2022-08-25T05:56:22.504Z,17.80
2022-08-25T05:58:50.384Z,25.17
2022-08-25T06:01:45.301Z,18.67
2022-08-25T06:04:15.808Z,21.20
2022-08-25T06:06:43.589Z,24.70
2022-08-25T06:09:11.461Z,15.78
2022-08-25T06:11:40.720Z,17.90
2022-08-25T06:14:10.005Z,18.10
2022-08-25T06:16:39.332Z,17.30
2022-08-25T06:19:09.891Z,23.30
2022-08-25T06:21:40.013Z,21.42
2022-08-25T06:24:15.234Z,13.08
2022-08-25T06:26:39.786Z,24.00
2022-08-25T06:29:07.542Z,20.20
2022-08-25T06:31:35.155Z,18.15
2022-08-25T06:34:03.201Z,17.50
2022-08-25T06:36:30.983Z,19.25
2022-08-25T06:38:58.744Z,21.70
2022-08-25T06:41:29.922Z,24.43
2022-08-25T06:44:01.547Z,17.55
2022-08-25T06:46:36.102Z,18.45
2022-08-25T06:49:00.393Z,20.97
2022-08-25T06:51:28.086Z,22.42
2022-08-25T06:53:55.715Z,19.50
2022-08-25T06:56:24.068Z,25.90
2022-08-25T06:58:51.919Z,18.60
2022-08-25T07:01:25.885Z,21.27
2022-08-25T07:04:00.107Z,27.70
2022-08-25T07:06:31.240Z,21.37
2022-08-25T07:08:59.519Z,18.80
2022-08-25T07:11:28.467Z,24.25
2022-08-25T07:13:56.225Z,21.23
2022-08-25T07:16:24.062Z,20.02
2022-08-25T07:18:55.383Z,20.92
2022-08-25T07:21:28.933Z,22.20
2022-08-25T07:23:57.456Z,21.97
2022-08-25T07:26:38.613Z,17.15
2022-08-25T07:28:59.516Z,12.78
2022-08-25T07:31:28.849Z,17.20
2022-08-25T07:34:16.666Z,14.65
2022-08-25T07:36:45.201Z,18.87
2022-08-25T07:39:13.342Z,14.63
2022-08-25T07:41:42.790Z,18.82
2022-08-25T07:44:12.624Z,18.82
2022-08-25T07:46:41.027Z,21.33
2022-08-25T07:49:17.084Z,23.65
2022-08-25T07:51:39.841Z,20.82
2022-08-25T07:54:09.265Z,17.40
2022-08-25T07:56:37.898Z,15.83
2022-08-25T07:59:05.438Z,18.23
2022-08-25T08:01:33.262Z,17.35
2022-08-25T08:04:03.572Z,19.60
2022-08-25T08:06:31.276Z,25.90
2022-08-25T08:08:59.913Z,21.48
2022-08-25T08:11:32.641Z,12.53
2022-08-25T08:14:01.991Z,22.00
2022-08-25T08:16:30.851Z,15.35
2022-08-25T08:19:00.269Z,19.55
2022-08-25T08:21:33.028Z,16.15
2022-08-25T08:24:02.062Z,20.05
2022-08-25T08:26:55.317Z,15.63
2022-08-25T08:29:01.938Z,15.28
2022-08-25T08:31:29.654Z,14.83
2022-08-25T08:33:57.932Z,15.83
2022-08-25T08:36:26.510Z,18.52
2022-08-25T08:38:54.926Z,19.02
2022-08-25T08:42:10.910Z,22.42
2022-08-25T08:44:49.500Z,20.88
2022-08-25T08:47:30.950Z,12.10
2022-08-25T08:50:06.649Z,16.90
2022-08-25T08:53:01.365Z,13.22
2022-08-25T08:55:52.756Z,17.90
2022-08-25T08:58:33.388Z,21.87
2022-08-25T09:01:01.397Z,23.47
2022-08-25T09:03:46.722Z,18.35
2022-08-25T09:06:42.903Z,23.30
2022-08-25T09:09:17.087Z,14.85
2022-08-25T09:12:00.608Z,19.70
2022-08-25T09:14:57.949Z,14.25
2022-08-25T09:18:12.437Z,14.98
2022-08-25T09:21:12.894Z,26.73
2022-08-25T09:23:55.191Z,21.45
2022-08-25T09:26:37.447Z,15.50
2022-08-25T09:29:16.665Z,16.33
2022-08-25T09:31:42.706Z,21.62
2022-08-25T09:34:20.387Z,14.23
2022-08-25T09:36:50.894Z,17.50
2022-08-25T09:39:20.961Z,15.75
2022-08-25T09:41:59.729Z,16.23
2022-08-25T09:44:41.108Z,15.80
2022-08-25T09:47:17.274Z,15.18
2022-08-25T09:50:00.274Z,17.20
2022-08-25T09:52:37.799Z,16.85
2022-08-25T09:55:16.771Z,13.78
2022-08-25T09:57:52.951Z,13.72
2022-08-25T10:00:33.002Z,13.10
2022-08-25T10:03:15.537Z,17.55
2022-08-25T10:06:00.772Z,18.10
2022-08-25T10:08:39.962Z,14.95
2022-08-25T10:11:15.113Z,18.40
2022-08-25T10:13:51.418Z,14.10
2022-08-25T10:16:34.571Z,18.10
2022-08-25T10:19:13.090Z,19.27
2022-08-25T10:21:42.841Z,15.48
2022-08-25T10:24:13.195Z,14.05
2022-08-25T10:27:07.602Z,14.75
2022-08-25T10:29:52.655Z,14.65
2022-08-25T10:32:57.482Z,13.72
2022-08-25T10:35:36.651Z,12.98
2022-08-25T10:38:43.175Z,12.47
2022-08-25T10:41:31.549Z,12.13
2022-08-25T10:44:50.259Z,13.28
2022-08-25T10:47:47.338Z,12.60
2022-08-25T10:50:40.147Z,14.68
2022-08-25T10:53:49.748Z,16.95
2022-08-25T10:56:31.584Z,9.05
2022-08-25T10:59:07.399Z,11.28
2022-08-25T11:01:48.035Z,13.05
2022-08-25T11:05:06.129Z,5.08
2022-08-25T11:07:38.134Z,8.38
2022-08-25T11:10:11.398Z,11.17
2022-08-25T11:12:53.383Z,11.22
2022-08-25T11:15:28.860Z,8.30
2022-08-25T11:18:14.605Z,9.48
2022-08-25T11:23:41.642Z,7.55
2022-08-25T11:26:13.064Z,11.78
2022-08-25T11:29:11.589Z,14.47
2022-08-25T11:31:52.193Z,10.90
2022-08-25T11:34:15.857Z,12.18
2022-08-25T11:36:57.225Z,11.93
2022-08-25T11:40:00.526Z,7.30
2022-08-25T11:42:51.847Z,7.25
2022-08-25T11:45:30.894Z,12.20
2022-08-25T11:48:45.306Z,8.58
2022-08-25T11:51:37.177Z,8.40
2022-08-25T11:54:35.986Z,7.85
2022-08-25T11:57:15.183Z,10.95
2022-08-25T12:00:03.262Z,5.72
2022-08-25T12:02:38.539Z,7.80
2022-08-25T12:05:24.071Z,10.23
2022-08-25T12:08:18.582Z,7.92
2022-08-25T12:11:11.107Z,10.28
2022-08-25T12:13:51.251Z,8.08
2022-08-25T12:16:39.429Z,10.00
2022-08-25T12:19:38.314Z,9.38
2022-08-25T12:22:11.218Z,10.90
2022-08-25T12:24:58.978Z,7.80
2022-08-25T12:28:09.064Z,16.55
2022-08-25T12:30:47.449Z,20.52
2022-08-25T12:33:52.794Z,10.65
2022-08-25T12:36:33.483Z,13.25
2022-08-25T12:39:24.157Z,9.73
2022-08-25T12:42:04.060Z,8.68
2022-08-25T12:44:46.998Z,9.53
2022-08-25T12:47:26.757Z,8.23
2022-08-25T12:50:25.334Z,7.55
2022-08-25T12:52:55.738Z,8.68
2022-08-25T12:55:26.263Z,10.18
2022-08-25T12:57:58.280Z,6.35
2022-08-25T13:00:36.533Z,8.03
2022-08-25T13:03:18.270Z,5.78
2022-08-25T13:05:59.773Z,8.55
2022-08-25T13:09:03.546Z,5.97
2022-08-25T13:11:38.337Z,8.78
2022-08-25T13:14:17.477Z,19.25
2022-08-25T13:16:57.959Z,9.38
2022-08-25T13:19:27.884Z,4.90
2022-08-25T13:21:58.897Z,10.08
2022-08-25T13:24:40.308Z,5.58
2022-08-25T13:27:13.387Z,8.08
2022-08-25T13:29:55.187Z,5.83
2022-08-25T13:32:35.494Z,7.05
2022-08-25T13:35:19.877Z,11.93
2022-08-25T13:37:49.123Z,8.80
2022-08-25T13:40:28.580Z,28.67
2022-08-25T13:43:05.057Z,5.00
2022-08-25T13:45:41.891Z,9.98
2022-08-25T13:48:22.482Z,9.10
2022-08-25T13:50:43.725Z,5.65
2022-08-25T13:53:17.781Z,7.58
2022-08-25T13:55:53.859Z,6.40
2022-08-25T13:58:38.881Z,10.90
2022-08-25T14:01:49.211Z,7.08
2022-08-25T14:03:57.610Z,18.35
2022-08-25T14:06:27.684Z,8.75
2022-08-25T14:09:03.895Z,11.00
2022-08-25T14:11:46.251Z,6.03
2022-08-25T14:14:26.884Z,5.97
2022-08-25T14:17:21.507Z,7.05
2022-08-25T14:19:37.036Z,6.15
2022-08-25T14:22:04.823Z,4.67
2022-08-25T14:24:38.847Z,7.47
2022-08-25T14:29:32.398Z,8.48
2022-08-25T14:32:02.144Z,6.20
2022-08-25T14:34:35.887Z,5.75
2022-08-25T14:37:19.525Z,6.70
2022-08-25T14:39:47.137Z,5.67
2022-08-25T14:42:16.422Z,9.53
2022-08-25T14:44:45.350Z,8.38
2022-08-25T14:47:13.041Z,8.25
2022-08-25T14:49:45.011Z,6.75
2022-08-25T14:52:26.840Z,9.30
2022-08-25T14:54:56.179Z,5.93
2022-08-25T14:57:25.096Z,7.08
2022-08-25T14:59:52.986Z,6.83
2022-08-25T15:02:30.484Z,5.97
2022-08-25T15:05:05.543Z,6.50
2022-08-25T15:07:52.738Z,6.35
2022-08-25T15:10:21.668Z,7.78
2022-08-25T15:12:51.218Z,8.50
2022-08-25T15:15:19.795Z,7.05
2022-08-25T15:17:50.376Z,6.47
2022-08-25T15:20:18.659Z,6.30
2022-08-25T15:22:47.740Z,13.13
2022-08-25T15:25:16.278Z,7.87
2022-08-25T15:27:45.521Z,9.55
2022-08-25T15:30:14.588Z,8.58
2022-08-25T15:32:42.807Z,12.43
2022-08-25T15:35:11.893Z,10.45
2022-08-25T15:37:41.642Z,8.28
2022-08-25T15:40:10.160Z,6.35
2022-08-25T15:42:38.049Z,8.00
2022-08-25T15:45:09.591Z,5.28
2022-08-25T15:47:37.502Z,7.67
2022-08-25T15:50:13.886Z,6.22
2022-08-25T15:52:46.601Z,15.23
2022-08-25T15:55:11.666Z,9.03
2022-08-25T15:57:39.606Z,8.60
2022-08-25T16:00:11.891Z,4.03
2022-08-25T16:02:41.351Z,8.88
2022-08-25T16:05:10.626Z,6.72
2022-08-25T16:07:38.302Z,11.50
2022-08-25T16:10:07.094Z,8.08
2022-08-25T16:12:34.974Z,9.13
2022-08-25T16:15:03.252Z,9.48
2022-08-25T16:17:30.878Z,10.95
2022-08-25T16:19:58.352Z,17.42
2022-08-25T16:22:26.548Z,10.13
2022-08-25T16:24:55.858Z,8.63
2022-08-25T16:27:23.634Z,10.90
2022-08-25T16:29:51.889Z,9.08
2022-08-25T16:32:20.382Z,11.18
2022-08-25T16:34:48.045Z,10.10
2022-08-25T16:37:15.502Z,6.22
2022-08-25T16:39:44.682Z,8.48
2022-08-25T16:42:12.897Z,12.35
2022-08-25T16:44:40.743Z,11.50
2022-08-25T16:47:08.792Z,31.27
2022-08-25T16:49:37.122Z,12.80
2022-08-25T16:52:07.910Z,14.65
2022-08-25T16:54:55.922Z,11.38
2022-08-25T16:57:23.468Z,11.70
2022-08-25T16:59:51.412Z,10.75
2022-08-25T17:02:18.814Z,6.62
2022-08-25T17:04:48.310Z,7.03
2022-08-25T17:07:16.401Z,12.58
2022-08-25T17:09:47.360Z,9.18
2022-08-25T17:12:14.879Z,7.90
2022-08-25T17:14:42.613Z,9.70
2022-08-25T17:17:10.262Z,11.22
2022-08-25T17:19:38.348Z,9.78
2022-08-25T17:22:11.130Z,9.90
2022-08-25T17:24:40.482Z,13.15
2022-08-25T17:27:09.856Z,9.65
2022-08-25T17:29:40.304Z,25.25
2022-08-25T17:32:09.491Z,10.43
2022-08-25T17:34:38.771Z,10.53
2022-08-25T17:37:06.324Z,7.72
2022-08-25T17:39:33.771Z,10.35
2022-08-25T17:42:01.785Z,6.22
2022-08-25T17:44:29.317Z,6.95
2022-08-25T17:46:57.753Z,20.37
2022-08-25T17:49:26.868Z,21.57
2022-08-25T17:51:54.391Z,19.62
2022-08-25T17:54:21.805Z,18.82
2022-08-25T17:56:49.186Z,15.68
2022-08-25T17:59:18.423Z,20.27
2022-08-25T18:01:47.432Z,18.48
2022-08-25T18:04:17.940Z,14.73
2022-08-25T18:06:47.870Z,10.10
2022-08-25T18:09:17.525Z,11.70
2022-08-25T18:11:46.106Z,13.50
2022-08-25T18:14:16.118Z,15.32
2022-08-25T18:16:44.730Z,16.05
2022-08-25T18:19:14.343Z,12.10
2022-08-25T18:21:43.180Z,12.33
2022-08-25T18:24:11.895Z,13.83
2022-08-25T18:26:41.711Z,12.40
2022-08-25T18:29:11.719Z,11.20
2022-08-25T18:31:41.649Z,16.20
2022-08-25T18:34:11.006Z,13.25
2022-08-25T18:36:39.119Z,12.28
2022-08-25T18:39:26.207Z,12.55
2022-08-25T18:41:54.081Z,11.08
2022-08-25T18:44:23.449Z,9.40
2022-08-25T18:46:50.937Z,6.53
2022-08-25T18:49:20.344Z,7.85
2022-08-25T18:51:48.194Z,8.13
2022-08-25T18:54:23.673Z,13.32
2022-08-25T18:56:48.035Z,14.83
2022-08-25T18:59:15.378Z,11.83
2022-08-25T19:01:44.325Z,11.60
2022-08-25T19:04:14.690Z,9.90
2022-08-25T19:06:43.745Z,11.05
2022-08-25T19:09:11.706Z,10.93
2022-08-25T19:11:39.299Z,13.85
2022-08-25T19:14:12.049Z,13.58
2022-08-25T19:16:40.852Z,8.28
2022-08-25T19:19:12.590Z,13.18
2022-08-25T19:21:41.440Z,8.53
2022-08-25T19:24:11.286Z,11.22
2022-08-25T19:26:41.154Z,9.78
2022-08-25T19:29:13.889Z,8.58
2022-08-25T19:31:44.047Z,11.10
2022-08-25T19:34:18.155Z,15.78
2022-08-25T19:36:46.749Z,10.80
2022-08-25T19:39:15.718Z,10.38
2022-08-25T19:41:44.852Z,14.95
2022-08-25T19:44:12.505Z,15.05
2022-08-25T19:46:43.030Z,20.43
2022-08-25T19:49:18.552Z,15.32
2022-08-25T19:51:51.126Z,12.63
2022-08-25T19:54:24.199Z,10.38
2022-08-25T19:56:54.384Z,10.55
2022-08-25T19:59:25.016Z,7.78
2022-08-25T20:01:53.763Z,8.23
2022-08-25T20:04:21.556Z,7.30
2022-08-25T20:06:50.792Z,11.45
2022-08-25T20:09:35.677Z,8.48
2022-08-25T20:11:47.628Z,9.65
2022-08-25T20:14:16.812Z,7.15
2022-08-25T20:16:44.646Z,7.90
2022-08-25T20:19:12.485Z,7.33
2022-08-25T20:21:41.544Z,10.35
2022-08-25T20:24:28.215Z,11.70
2022-08-25T20:26:57.110Z,7.12
2022-08-25T20:29:24.651Z,9.20
2022-08-25T20:31:52.368Z,15.35
2022-08-25T20:34:19.790Z,7.67
2022-08-25T20:36:49.862Z,8.03
2022-08-25T20:39:17.608Z,10.13
2022-08-25T20:41:48.335Z,6.03
2022-08-25T20:44:15.969Z,6.50
2022-08-25T20:46:45.521Z,6.30
2022-08-25T20:49:13.898Z,9.75
2022-08-25T20:51:41.458Z,8.78
2022-08-25T20:54:13.847Z,10.18
2022-08-25T20:59:10.292Z,7.17
2022-08-25T21:01:39.716Z,8.43
2022-08-25T21:04:14.458Z,9.78
2022-08-25T21:06:42.385Z,10.20
2022-08-25T21:09:15.812Z,6.97
2022-08-25T21:11:44.981Z,8.25
2022-08-25T21:14:13.958Z,12.43
2022-08-25T21:16:44.638Z,6.60
2022-08-25T21:19:16.303Z,8.93
2022-08-25T21:21:44.772Z,7.65
2022-08-25T21:24:13.418Z,7.40
2022-08-25T21:26:48.940Z,8.70
2022-08-25T21:29:10.478Z,8.63
2022-08-25T21:31:40.237Z,6.60
2022-08-25T21:34:08.093Z,6.15
2022-08-25T21:36:36.132Z,8.68
2022-08-25T21:39:03.834Z,8.30
2022-08-25T21:41:35.662Z,7.42
2022-08-25T21:44:05.128Z,10.38
2022-08-25T21:46:35.642Z,10.53
2022-08-25T21:49:06.126Z,6.62
2022-08-25T21:51:40.621Z,5.20
2022-08-25T21:54:12.802Z,7.22
2022-08-25T21:56:50.910Z,7.40
2022-08-25T21:59:23.572Z,10.35
2022-08-25T22:02:04.293Z,8.00
2022-08-25T22:04:34.639Z,7.37
2022-08-25T22:07:02.449Z,5.75
2022-08-25T22:09:31.039Z,8.63
2022-08-25T22:11:59.497Z,6.33
2022-08-25T22:14:27.640Z,10.08
2022-08-25T22:16:55.711Z,9.25
2022-08-25T22:19:24.676Z,6.33
2022-08-25T22:21:53.502Z,8.43
2022-08-25T22:24:21.524Z,8.25
2022-08-25T22:26:49.512Z,8.05
2022-08-25T22:29:24.847Z,7.35
2022-08-25T22:31:51.075Z,7.72
2022-08-25T22:34:17.623Z,6.78
2022-08-25T22:36:47.895Z,8.48
2022-08-25T22:39:15.308Z,7.95
2022-08-25T22:41:42.877Z,7.90
2022-08-25T22:44:10.462Z,9.98
2022-08-25T22:46:37.940Z,10.28
2022-08-25T22:49:06.028Z,6.85
2022-08-25T22:51:36.218Z,10.72
2022-08-25T22:54:04.646Z,6.90
2022-08-25T22:56:36.852Z,8.88
2022-08-25T22:59:11.630Z,9.10
2022-08-25T23:01:39.674Z,11.60
2022-08-25T23:04:08.014Z,9.18
2022-08-25T23:06:36.134Z,8.68
2022-08-25T23:09:06.962Z,8.45
2022-08-25T23:11:35.704Z,6.85
2022-08-25T23:14:09.118Z,9.20
2022-08-25T23:16:41.781Z,10.60
2022-08-25T23:19:13.925Z,10.23
2022-08-25T23:22:03.714Z,8.60
2022-08-25T23:24:31.911Z,8.48
2022-08-25T23:27:01.454Z,6.47
2022-08-25T23:29:31.426Z,11.00
2022-08-25T23:31:59.140Z,10.30
2022-08-25T23:34:28.500Z,8.78
2022-08-25T23:36:56.746Z,6.72
2022-08-25T23:39:24.780Z,7.35
2022-08-25T23:41:53.003Z,7.70
2022-08-25T23:44:22.921Z,7.75
2022-08-25T23:46:52.591Z,11.57
2022-08-25T23:49:23.041Z,8.05
2022-08-25T23:51:52.936Z,8.28
2022-08-25T23:54:21.393Z,9.85
2022-08-25T23:56:51.642Z,9.25
2022-08-25T23:59:20.471Z,11.28
